Bo Airport

Jump to: basic info | weather | comments

Related pages: nearby airports | nearby navaids | notams | map

Basic information (top)

Codes: KBS GFBO
Location: lon 7.944400, lat -11.761000, elev 328 ft / 100 m msl
Status: medium_airport
Scheduled airline service: yes
Links: Wikipedia Mobile

Weather (top)

Current conditions for Lungi International Airport 94nm (175km) WNW (rec'd 2014/10/24 15:00Z):

GFLL 241500Z 27010KT 8000 TS BKN012 FEW027CB 30/23 Q1010 RMK-CB NE/SW

Airport forecast for Lungi International Airport 94nm (175km) WNW (rec'd 2014/10/24 12:00Z):

TAF GFLL 241000Z 2412/2418 24008KT 9999 BKN012 
      TEMPO 2416/2422 21006KT 8000 TS/TSRA BKN011 FEW027CB PROB30 
      TEMPO 2420/2501 18010KT 4000 BR SCT010 FEW026CB 
      BECMG 2503/2506 26012KT 9999 SCT012 FEW027CB

Latest comments (top)

No comments yet for Bo Airport

More... (top)

See also NOTAMs and nearby airports and navaids, or visit the Bo Airport page at the main OurAirports website..